createdAt,value
2023-04-20T00:01:17.171Z,76.90
2023-04-20T00:03:51.754Z,76.90
2023-04-20T00:06:25.549Z,76.90
2023-04-20T00:08:59.777Z,76.90
2023-04-20T00:11:35.145Z,77.20
2023-04-20T00:14:09.822Z,77.50
2023-04-20T00:16:40.609Z,77.40
2023-04-20T00:19:11.762Z,77.50
2023-04-20T00:21:43.613Z,78.00
2023-04-20T00:24:16.943Z,77.90
2023-04-20T00:26:49.852Z,77.90
2023-04-20T00:29:24.540Z,77.80
2023-04-20T00:31:56.173Z,78.00
2023-04-20T00:34:27.645Z,78.00
2023-04-20T00:36:56.272Z,78.20
2023-04-20T00:39:25.031Z,78.10
2023-04-20T00:41:55.134Z,78.00
2023-04-20T00:44:26.504Z,78.40
2023-04-20T00:46:57.513Z,78.30
2023-04-20T00:49:34.552Z,78.30
2023-04-20T00:52:04.833Z,78.40
2023-04-20T00:54:33.908Z,78.50
2023-04-20T00:57:14.661Z,78.60
2023-04-20T00:59:48.254Z,78.70
2023-04-20T01:02:18.277Z,78.80
2023-04-20T01:04:48.537Z,79.10
2023-04-20T01:07:17.400Z,79.10
2023-04-20T01:09:46.706Z,79.20
2023-04-20T01:12:21.492Z,79.60
2023-04-20T01:14:53.142Z,79.70
2023-04-20T01:17:24.272Z,80.10
2023-04-20T01:19:53.005Z,80.20
2023-04-20T01:22:26.365Z,80.50
2023-04-20T01:24:57.897Z,81.70
2023-04-20T01:27:29.349Z,81.30
2023-04-20T01:29:58.282Z,81.80
2023-04-20T01:32:32.317Z,82.10
2023-04-20T01:35:04.112Z,82.80
2023-04-20T01:37:42.360Z,83.10
2023-04-20T01:40:22.519Z,83.70
2023-04-20T01:42:51.229Z,83.90
2023-04-20T01:45:25.816Z,84.80
2023-04-20T01:48:01.801Z,84.50
2023-04-20T01:50:36.630Z,85.00
2023-04-20T01:53:06.826Z,85.40
2023-04-20T01:55:41.292Z,85.70
2023-04-20T01:58:17.458Z,86.00
2023-04-20T02:00:49.304Z,86.00
2023-04-20T02:03:20.730Z,86.10
2023-04-20T02:06:03.124Z,86.40
2023-04-20T02:08:37.812Z,86.90
2023-04-20T02:11:09.697Z,87.70
2023-04-20T02:13:41.221Z,87.30
2023-04-20T02:16:10.065Z,87.40
2023-04-20T02:18:39.372Z,87.30
2023-04-20T02:21:08.403Z,87.80
2023-04-20T02:23:38.626Z,87.70
2023-04-20T02:26:07.458Z,87.80
2023-04-20T02:28:38.876Z,88.60
2023-04-20T02:31:09.852Z,88.60
2023-04-20T02:33:42.061Z,89.30
2023-04-20T02:36:15.815Z,89.10
2023-04-20T02:38:48.851Z,89.30
2023-04-20T02:41:17.679Z,89.30
2023-04-20T02:43:46.483Z,89.60
2023-04-20T02:46:18.897Z,89.80
2023-04-20T02:49:04.331Z,89.90
2023-04-20T02:51:35.686Z,90.30
2023-04-20T02:54:07.424Z,90.20
2023-04-20T02:56:36.269Z,90.40
2023-04-20T02:59:05.107Z,90.30
2023-04-20T03:01:36.298Z,90.40
2023-04-20T03:04:05.720Z,90.50
2023-04-20T03:06:38.679Z,90.60
2023-04-20T03:09:18.545Z,90.70
2023-04-20T03:11:51.362Z,90.80
2023-04-20T03:14:20.415Z,91.00
2023-04-20T03:16:54.538Z,91.30
2023-04-20T03:19:32.035Z,91.30
2023-04-20T03:22:08.392Z,91.40
2023-04-20T03:24:39.549Z,91.40
2023-04-20T03:27:08.776Z,91.40
2023-04-20T03:29:40.474Z,91.60
2023-04-20T03:32:09.333Z,91.60
2023-04-20T03:34:40.832Z,91.80
2023-04-20T03:37:14.015Z,91.90
2023-04-20T03:39:57.905Z,92.10
2023-04-20T03:42:31.296Z,92.20
2023-04-20T03:45:00.209Z,92.20
2023-04-20T03:47:35.044Z,92.30
2023-04-20T03:50:06.960Z,92.40
2023-04-20T03:52:35.654Z,92.50
2023-04-20T03:55:06.554Z,92.60
2023-04-20T03:57:35.581Z,92.70
2023-04-20T04:00:05.004Z,92.80
2023-04-20T04:02:36.135Z,93.00
2023-04-20T04:05:07.678Z,93.10
2023-04-20T04:07:36.514Z,93.20
2023-04-20T04:10:07.670Z,93.40
2023-04-20T04:12:36.418Z,93.60
2023-04-20T04:15:05.970Z,93.80
2023-04-20T04:17:35.009Z,94.00
2023-04-20T04:20:03.820Z,94.10
2023-04-20T04:22:39.284Z,94.30
2023-04-20T04:25:13.107Z,94.50
2023-04-20T04:27:41.871Z,94.60
2023-04-20T04:30:12.140Z,94.80
2023-04-20T04:32:43.729Z,95.00
2023-04-20T04:35:12.582Z,95.20
2023-04-20T04:37:44.067Z,95.50
2023-04-20T04:40:15.217Z,95.70
2023-04-20T04:42:59.607Z,96.10
2023-04-20T04:45:39.213Z,96.10
2023-04-20T04:48:12.565Z,96.30
2023-04-20T04:50:43.033Z,96.50
2023-04-20T04:53:16.521Z,96.80
2023-04-20T04:55:47.238Z,97.10
2023-04-20T04:58:19.635Z,97.30
2023-04-20T05:00:52.083Z,98.00
2023-04-20T05:03:22.946Z,98.40
2023-04-20T05:05:55.229Z,98.70
2023-04-20T05:08:28.695Z,98.80
2023-04-20T05:11:00.165Z,99.40
2023-04-20T05:13:29.291Z,99.50
2023-04-20T05:16:03.106Z,99.90
2023-04-20T05:18:32.156Z,99.90
2023-04-20T05:21:01.211Z,99.90
2023-04-20T05:23:30.181Z,99.90
2023-04-20T05:26:00.349Z,99.90
2023-04-20T05:28:30.555Z,99.90
2023-04-20T05:31:01.913Z,99.90
2023-04-20T05:33:33.092Z,99.90
2023-04-20T05:36:03.607Z,99.90
2023-04-20T05:38:32.774Z,99.90
2023-04-20T05:41:03.038Z,99.90
2023-04-20T05:43:33.006Z,99.90
2023-04-20T05:46:01.848Z,99.90
2023-04-20T05:48:31.456Z,99.90
2023-04-20T05:51:00.179Z,99.90
2023-04-20T05:53:28.882Z,99.90
2023-04-20T05:56:00.303Z,99.90
2023-04-20T05:58:30.683Z,99.90
2023-04-20T06:00:59.609Z,99.90
2023-04-20T06:03:30.254Z,99.90
2023-04-20T06:05:59.309Z,99.90
2023-04-20T06:08:30.369Z,99.90
2023-04-20T06:10:59.277Z,99.90
2023-04-20T06:13:30.812Z,99.90
2023-04-20T06:15:59.864Z,99.90
2023-04-20T06:18:29.521Z,99.90
2023-04-20T06:21:03.271Z,99.90
2023-04-20T06:23:32.158Z,99.90
2023-04-20T06:26:00.952Z,99.90
2023-04-20T06:28:36.033Z,99.90
2023-04-20T06:31:07.892Z,99.90
2023-04-20T06:33:36.940Z,99.90
2023-04-20T06:36:13.298Z,99.90
2023-04-20T06:38:53.082Z,99.90
2023-04-20T06:41:21.766Z,99.90
2023-04-20T06:43:51.977Z,99.90
2023-04-20T06:46:24.689Z,99.90
2023-04-20T06:48:53.524Z,99.90
2023-04-20T06:51:22.346Z,99.90
2023-04-20T06:53:51.075Z,99.90
2023-04-20T06:56:22.395Z,99.90
2023-04-20T06:58:52.584Z,99.90
2023-04-20T07:01:21.938Z,99.90
2023-04-20T07:03:50.815Z,99.90
2023-04-20T07:06:19.642Z,99.90
2023-04-20T07:08:48.438Z,99.90
2023-04-20T07:11:19.197Z,99.90
2023-04-20T07:13:48.018Z,99.90
2023-04-20T07:16:21.479Z,99.90
2023-04-20T07:18:50.276Z,99.90
2023-04-20T07:21:18.993Z,99.90
2023-04-20T07:23:48.378Z,99.90
2023-04-20T07:26:19.961Z,99.90
2023-04-20T07:28:48.654Z,99.90
2023-04-20T07:31:19.060Z,99.90
2023-04-20T07:33:50.950Z,99.90
2023-04-20T07:36:22.826Z,99.90
2023-04-20T07:38:51.642Z,99.90
2023-04-20T07:41:23.198Z,99.90
2023-04-20T07:43:52.188Z,99.90
2023-04-20T07:46:25.589Z,99.90
2023-04-20T07:48:54.337Z,99.90
2023-04-20T07:51:23.160Z,99.90
2023-04-20T07:53:52.047Z,99.90
2023-04-20T07:56:21.144Z,99.90
2023-04-20T07:58:49.952Z,99.90
2023-04-20T08:01:20.054Z,99.90
2023-04-20T08:03:56.084Z,99.90
2023-04-20T08:06:24.959Z,99.90
2023-04-20T08:08:53.707Z,99.90
2023-04-20T08:11:24.537Z,99.90
2023-04-20T08:13:53.367Z,99.90
2023-04-20T08:16:22.212Z,99.90
2023-04-20T08:18:52.704Z,99.90
2023-04-20T08:21:25.456Z,99.90
2023-04-20T08:23:55.048Z,99.90
2023-04-20T08:26:27.515Z,99.90
2023-04-20T08:28:56.594Z,99.90
2023-04-20T08:31:25.349Z,99.90
2023-04-20T08:33:56.176Z,99.90
2023-04-20T08:36:28.123Z,99.90
2023-04-20T08:38:59.745Z,99.90
2023-04-20T08:41:28.481Z,99.90
2023-04-20T08:43:57.130Z,99.90
2023-04-20T08:46:26.439Z,99.90
2023-04-20T08:49:01.631Z,99.90
2023-04-20T08:51:31.196Z,99.90
2023-04-20T08:54:06.330Z,99.90
2023-04-20T08:56:38.601Z,99.90
2023-04-20T08:59:10.406Z,99.90
2023-04-20T09:01:41.626Z,99.90
2023-04-20T09:04:19.953Z,99.90
2023-04-20T09:06:50.350Z,99.90
2023-04-20T09:09:19.704Z,99.90
2023-04-20T09:11:49.193Z,99.90
2023-04-20T09:14:18.971Z,99.90
2023-04-20T09:16:52.230Z,99.90
2023-04-20T09:19:25.696Z,99.90
2023-04-20T09:21:56.442Z,99.90
2023-04-20T09:24:32.768Z,99.90
2023-04-20T09:27:02.426Z,99.90
2023-04-20T09:29:32.375Z,99.90
2023-04-20T09:32:01.035Z,99.90
2023-04-20T09:34:31.791Z,99.90
2023-04-20T09:37:00.454Z,99.90
2023-04-20T09:39:30.522Z,99.90
2023-04-20T09:42:05.461Z,99.90
2023-04-20T09:44:39.948Z,99.90
2023-04-20T09:47:09.108Z,99.90
2023-04-20T09:49:40.348Z,99.90
2023-04-20T09:52:09.425Z,99.90
2023-04-20T09:54:39.307Z,99.90
2023-04-20T09:57:07.968Z,99.90
2023-04-20T09:59:37.350Z,99.90
2023-04-20T10:02:10.235Z,99.90
2023-04-20T10:04:52.117Z,99.90
2023-04-20T10:07:26.496Z,99.90
2023-04-20T10:10:09.330Z,99.90
2023-04-20T10:12:49.285Z,99.90
2023-04-20T10:15:18.757Z,99.90
2023-04-20T10:17:47.583Z,99.90
2023-04-20T10:20:26.011Z,99.90
2023-04-20T10:22:56.322Z,99.90
2023-04-20T10:25:28.028Z,99.90
2023-04-20T10:27:59.078Z,99.90
2023-04-20T10:30:29.235Z,99.90
2023-04-20T10:33:08.745Z,99.90
2023-04-20T10:35:48.937Z,99.90
2023-04-20T10:38:20.452Z,99.90
2023-04-20T10:40:49.429Z,99.90
2023-04-20T10:43:22.373Z,99.90
2023-04-20T10:45:51.566Z,99.90
2023-04-20T10:48:20.363Z,99.90
2023-04-20T10:50:53.532Z,99.90
2023-04-20T10:53:23.349Z,99.90
2023-04-20T10:56:00.096Z,99.90
2023-04-20T10:58:29.606Z,99.90
2023-04-20T11:01:03.250Z,99.90
2023-04-20T11:03:34.349Z,99.90
2023-04-20T11:06:04.818Z,99.90
2023-04-20T11:08:44.295Z,99.90
2023-04-20T11:11:24.919Z,99.90
2023-04-20T11:13:55.880Z,99.90
2023-04-20T11:16:30.470Z,99.90
2023-04-20T11:19:05.899Z,99.90
2023-04-20T11:21:39.959Z,99.90
2023-04-20T11:24:20.258Z,99.90
2023-04-20T11:26:51.428Z,99.90
2023-04-20T11:29:34.138Z,99.90
2023-04-20T11:32:05.623Z,99.90
2023-04-20T11:34:39.652Z,99.90
2023-04-20T11:37:13.154Z,99.90
2023-04-20T11:39:42.383Z,99.90
2023-04-20T11:42:12.386Z,99.90
2023-04-20T11:44:43.034Z,99.90
2023-04-20T11:47:15.154Z,99.90
2023-04-20T11:49:43.819Z,99.90
2023-04-20T11:52:13.867Z,99.90
2023-04-20T11:54:43.838Z,99.90
2023-04-20T11:57:16.028Z,99.90
2023-04-20T11:59:49.907Z,99.90
2023-04-20T12:02:20.466Z,99.90
2023-04-20T12:04:49.555Z,99.90
2023-04-20T12:07:23.019Z,99.90
2023-04-20T12:09:51.859Z,99.90
2023-04-20T12:12:22.185Z,99.90
2023-04-20T12:14:53.273Z,99.90
2023-04-20T12:17:22.012Z,99.90
2023-04-20T12:19:50.609Z,99.90
2023-04-20T12:22:22.026Z,99.90
2023-04-20T12:24:50.816Z,99.90
2023-04-20T12:27:20.229Z,99.90
2023-04-20T12:29:48.879Z,99.90
2023-04-20T12:32:19.034Z,99.90
2023-04-20T12:34:47.677Z,99.90
2023-04-20T12:37:16.301Z,99.90
2023-04-20T12:39:46.412Z,99.90
2023-04-20T12:42:15.145Z,99.90
2023-04-20T12:44:43.898Z,99.90
2023-04-20T12:47:13.734Z,99.90
2023-04-20T12:49:42.395Z,99.90
2023-04-20T12:52:11.126Z,99.90
2023-04-20T12:54:41.069Z,99.90
2023-04-20T12:57:12.252Z,99.90
2023-04-20T12:59:48.598Z,99.90
2023-04-20T13:02:17.410Z,99.80
2023-04-20T13:04:46.943Z,99.90
2023-04-20T13:07:15.664Z,99.90
2023-04-20T13:09:44.358Z,99.90
2023-04-20T13:12:14.982Z,99.90
2023-04-20T13:14:43.739Z,99.90
2023-04-20T13:17:12.497Z,99.90
2023-04-20T13:19:41.365Z,99.90
2023-04-20T13:22:11.858Z,99.90
2023-04-20T13:24:41.879Z,99.90
2023-04-20T13:27:11.314Z,99.80
2023-04-20T13:29:41.513Z,99.60
2023-04-20T13:32:11.177Z,99.80
2023-04-20T13:34:42.405Z,99.90
2023-04-20T13:37:11.059Z,99.90
2023-04-20T13:39:39.755Z,99.90
2023-04-20T13:42:08.387Z,99.90
2023-04-20T13:44:37.392Z,99.80
2023-04-20T13:47:07.617Z,99.90
2023-04-20T13:49:36.232Z,99.70
2023-04-20T13:52:04.922Z,99.10
2023-04-20T13:54:33.769Z,98.80
2023-04-20T13:57:02.658Z,98.70
2023-04-20T13:59:31.484Z,98.50
2023-04-20T14:02:00.697Z,98.20
2023-04-20T14:04:30.764Z,98.50
2023-04-20T14:06:59.487Z,98.50
2023-04-20T14:09:28.637Z,98.90
2023-04-20T14:11:57.384Z,99.50
2023-04-20T14:14:26.055Z,99.10
2023-04-20T14:16:54.821Z,98.80
2023-04-20T14:19:23.463Z,98.80
2023-04-20T14:21:55.493Z,97.90
2023-04-20T14:24:24.165Z,97.40
2023-04-20T14:26:53.156Z,97.10
2023-04-20T14:29:21.945Z,96.30
2023-04-20T14:31:50.680Z,96.20
2023-04-20T14:34:19.606Z,95.60
2023-04-20T14:36:48.518Z,95.50
2023-04-20T14:39:20.534Z,95.30
2023-04-20T14:41:49.163Z,94.40
2023-04-20T14:44:17.903Z,93.40
2023-04-20T14:46:46.716Z,93.70
2023-04-20T14:49:15.352Z,93.90
2023-04-20T14:51:44.090Z,93.70
2023-04-20T14:54:12.772Z,93.80
2023-04-20T14:56:42.893Z,93.60
2023-04-20T14:59:11.568Z,93.20
2023-04-20T15:01:48.410Z,92.90
2023-04-20T15:04:27.746Z,92.70
2023-04-20T15:06:56.440Z,92.20
2023-04-20T15:09:25.090Z,91.70
2023-04-20T15:11:55.219Z,92.00
2023-04-20T15:14:23.880Z,92.00
2023-04-20T15:16:53.572Z,92.60
2023-04-20T15:19:22.700Z,92.30
2023-04-20T15:21:51.580Z,92.40
2023-04-20T15:24:20.611Z,92.80
2023-04-20T15:26:49.449Z,92.80
2023-04-20T15:29:19.406Z,91.60
2023-04-20T15:31:48.281Z,91.50
2023-04-20T15:34:17.296Z,91.50
2023-04-20T15:36:46.603Z,90.90
2023-04-20T15:39:15.152Z,91.00
2023-04-20T15:41:43.748Z,91.10
2023-04-20T15:44:12.396Z,90.90
2023-04-20T15:46:42.322Z,90.90
2023-04-20T15:49:10.952Z,91.00
2023-04-20T15:51:39.763Z,91.10
2023-04-20T15:54:08.488Z,91.30
2023-04-20T15:56:37.152Z,91.40
2023-04-20T15:59:05.923Z,91.50
2023-04-20T16:01:35.275Z,90.90
2023-04-20T16:04:05.615Z,91.00
2023-04-20T16:06:36.922Z,90.80
2023-04-20T16:09:07.012Z,90.60
2023-04-20T16:11:36.172Z,90.30
2023-04-20T16:14:04.856Z,90.20
2023-04-20T16:16:34.008Z,90.10
2023-04-20T16:19:04.199Z,89.70
2023-04-20T16:21:35.306Z,90.00
2023-04-20T16:24:04.023Z,90.10
2023-04-20T16:26:32.811Z,90.20
2023-04-20T16:29:01.603Z,90.10
2023-04-20T16:31:30.593Z,90.30
2023-04-20T16:34:00.222Z,90.00
2023-04-20T16:36:30.753Z,90.10
2023-04-20T16:39:01.867Z,88.20
2023-04-20T16:41:30.981Z,88.80
2023-04-20T16:43:59.761Z,89.10
2023-04-20T16:46:28.565Z,89.30
2023-04-20T16:48:57.257Z,89.30
2023-04-20T16:51:26.064Z,89.80
2023-04-20T16:53:56.669Z,90.00
2023-04-20T16:56:25.397Z,90.00
2023-04-20T16:58:54.134Z,89.90
2023-04-20T17:01:22.987Z,89.50
2023-04-20T17:03:51.864Z,88.50
2023-04-20T17:06:20.618Z,87.90
2023-04-20T17:08:50.353Z,88.20
2023-04-20T17:11:20.452Z,88.20
2023-04-20T17:13:49.251Z,87.90
2023-04-20T17:16:18.113Z,87.70
2023-04-20T17:18:56.365Z,87.40
2023-04-20T17:21:29.209Z,87.60
2023-04-20T17:24:00.386Z,86.00
2023-04-20T17:26:34.668Z,85.50
2023-04-20T17:29:06.610Z,85.40
2023-04-20T17:31:38.327Z,85.70
2023-04-20T17:34:07.792Z,86.50
2023-04-20T17:36:36.592Z,86.80
2023-04-20T17:39:05.644Z,87.20
2023-04-20T17:41:35.869Z,87.60
2023-04-20T17:44:11.559Z,87.80
2023-04-20T17:46:41.230Z,88.00
2023-04-20T17:49:12.492Z,88.20
2023-04-20T17:52:02.136Z,88.40
2023-04-20T17:54:36.339Z,88.60
2023-04-20T17:57:07.088Z,88.80
2023-04-20T17:59:36.007Z,89.10
2023-04-20T18:02:05.262Z,89.60
2023-04-20T18:04:34.368Z,90.00
2023-04-20T18:07:08.027Z,90.00
2023-04-20T18:09:36.781Z,90.40
2023-04-20T18:12:08.695Z,90.60
2023-04-20T18:14:37.588Z,91.00
2023-04-20T18:17:06.308Z,90.80
2023-04-20T18:19:35.040Z,91.90
2023-04-20T18:22:04.205Z,92.10
2023-04-20T18:24:32.987Z,93.30
2023-04-20T18:27:02.143Z,93.80
2023-04-20T18:29:32.332Z,94.40
2023-04-20T18:32:01.394Z,95.40
2023-04-20T18:34:32.136Z,95.90
2023-04-20T18:37:00.981Z,96.30
2023-04-20T18:39:30.011Z,97.00
2023-04-20T18:41:58.671Z,97.40
2023-04-20T18:44:28.343Z,98.00
2023-04-20T18:46:58.787Z,98.40
2023-04-20T18:49:27.603Z,98.70
2023-04-20T18:51:56.278Z,98.80
2023-04-20T18:54:24.919Z,98.80
2023-04-20T18:56:54.814Z,99.50
2023-04-20T18:59:24.769Z,99.90
2023-04-20T19:01:53.590Z,99.90
2023-04-20T19:04:23.987Z,99.90
2023-04-20T19:06:52.739Z,99.90
2023-04-20T19:09:21.470Z,99.90
2023-04-20T19:11:51.463Z,99.90
2023-04-20T19:14:20.548Z,99.90
2023-04-20T19:16:56.134Z,99.90
2023-04-20T19:19:26.385Z,99.90
2023-04-20T19:21:55.200Z,99.90
2023-04-20T19:24:23.942Z,99.90
2023-04-20T19:26:52.585Z,99.90
2023-04-20T19:29:21.297Z,99.90
2023-04-20T19:31:50.032Z,99.90
2023-04-20T19:34:18.907Z,99.90
2023-04-20T19:36:49.127Z,99.90
2023-04-20T19:39:17.842Z,99.90
2023-04-20T19:41:46.730Z,99.90
2023-04-20T19:44:15.958Z,99.90
2023-04-20T19:46:44.732Z,99.90
2023-04-20T19:49:16.406Z,99.90
2023-04-20T19:51:45.256Z,99.90
2023-04-20T19:54:16.720Z,99.90
2023-04-20T19:56:46.453Z,99.90
2023-04-20T19:59:18.314Z,99.90
2023-04-20T20:01:50.207Z,99.90
2023-04-20T20:04:20.593Z,99.90
2023-04-20T20:06:50.880Z,99.90
2023-04-20T20:09:25.255Z,99.90
2023-04-20T20:11:53.962Z,99.90
2023-04-20T20:14:22.976Z,99.90
2023-04-20T20:16:51.662Z,99.90
2023-04-20T20:19:22.418Z,99.90
2023-04-20T20:21:51.522Z,99.90
2023-04-20T20:24:25.283Z,99.90
2023-04-20T20:26:55.448Z,99.90
2023-04-20T20:29:24.509Z,99.90
2023-04-20T20:31:55.287Z,99.90
2023-04-20T20:34:24.047Z,99.90
2023-04-20T20:36:53.417Z,99.90
2023-04-20T20:39:25.815Z,99.90
2023-04-20T20:41:57.069Z,99.90
2023-04-20T20:44:27.904Z,99.90
2023-04-20T20:46:56.767Z,99.90
2023-04-20T20:49:25.550Z,99.90
2023-04-20T20:51:54.191Z,99.90
2023-04-20T20:54:24.330Z,99.90
2023-04-20T20:56:53.109Z,99.90
2023-04-20T20:59:21.783Z,99.90
2023-04-20T21:01:50.473Z,99.90
2023-04-20T21:04:19.154Z,99.90
2023-04-20T21:06:49.488Z,99.90
2023-04-20T21:09:18.444Z,99.90
2023-04-20T21:11:48.859Z,99.90
2023-04-20T21:14:17.547Z,99.90
2023-04-20T21:16:46.249Z,99.90
2023-04-20T21:19:14.938Z,99.90
2023-04-20T21:21:43.698Z,99.90
2023-04-20T21:24:14.350Z,99.90
2023-04-20T21:26:43.195Z,99.90
2023-04-20T21:29:13.295Z,99.90
2023-04-20T21:31:42.048Z,99.90
2023-04-20T21:34:10.781Z,99.90
2023-04-20T21:36:39.473Z,99.90
2023-04-20T21:39:10.934Z,99.90
2023-04-20T21:41:39.600Z,99.90
2023-04-20T21:44:12.533Z,99.90
2023-04-20T21:46:41.293Z,99.90
2023-04-20T21:49:10.078Z,99.90
2023-04-20T21:51:38.854Z,99.90
2023-04-20T21:54:07.576Z,99.90
2023-04-20T21:56:36.204Z,99.90
2023-04-20T21:59:04.889Z,99.90
2023-04-20T22:01:35.008Z,99.90
2023-04-20T22:04:04.609Z,99.90
2023-04-20T22:06:33.777Z,99.90
2023-04-20T22:09:04.787Z,99.90
2023-04-20T22:11:36.479Z,99.90
2023-04-20T22:14:05.619Z,99.90
2023-04-20T22:16:38.610Z,99.90
2023-04-20T22:19:07.264Z,99.90
2023-04-20T22:21:35.946Z,99.90
2023-04-20T22:24:05.308Z,99.90
2023-04-20T22:26:33.997Z,99.90
2023-04-20T22:29:02.985Z,99.90
2023-04-20T22:31:35.365Z,99.90
2023-04-20T22:34:05.501Z,99.90
2023-04-20T22:36:35.157Z,99.90
2023-04-20T22:39:04.664Z,99.90
2023-04-20T22:41:33.415Z,99.90
2023-04-20T22:44:02.043Z,99.90
2023-04-20T22:46:30.729Z,99.90
2023-04-20T22:49:00.120Z,99.90
2023-04-20T22:51:30.896Z,99.90
2023-04-20T22:54:01.016Z,99.90
2023-04-20T22:56:30.334Z,99.90
2023-04-20T22:58:58.984Z,99.90
2023-04-20T23:01:27.808Z,99.90
2023-04-20T23:04:00.298Z,99.90
2023-04-20T23:06:31.849Z,99.90
2023-04-20T23:09:00.485Z,99.90
2023-04-20T23:11:30.845Z,99.90
2023-04-20T23:13:59.563Z,99.90
2023-04-20T23:16:30.028Z,99.90
2023-04-20T23:18:58.741Z,99.90
2023-04-20T23:21:27.787Z,99.90
2023-04-20T23:23:57.924Z,99.90
2023-04-20T23:26:26.746Z,99.90
2023-04-20T23:28:55.456Z,99.90
2023-04-20T23:31:26.253Z,99.90
2023-04-20T23:33:54.993Z,99.90
2023-04-20T23:36:23.599Z,99.90
2023-04-20T23:38:52.328Z,99.90
2023-04-20T23:41:22.416Z,99.90
2023-04-20T23:43:52.491Z,99.90
2023-04-20T23:46:23.955Z,99.90
2023-04-20T23:48:52.736Z,99.90
2023-04-20T23:51:21.482Z,99.90
2023-04-20T23:53:53.163Z,99.90
2023-04-20T23:56:23.396Z,99.90
2023-04-20T23:58:52.121Z,99.90
